La Criolla, Argentina
Current Conditions -  °F | °C
As of 9:00 PM on Saturday 22 Nov 2014 (Local Time) from SUSO Reporting Station
Clear Clear  
Wind Chill: 64°   Ceiling: Unl
Heat Index: 64°   Visibility: 6mi
Dew Point: 55°   Wind: 3mph
Humidity: 73%   Direction: 180°S
Pressure: 29.91"   Gusts: NA
Location:  30.23°S, 60.37°W
Report Text: SUSO 230000Z 18003KT CAVOK 18/13 Q1013
Loading
Personal Weather Stations






























Interactive Weather Map New forecast layout! Learn more

10-Day Weather Forecast

Advertisements
Track Severe Weather on mobile